sensor_id;sensor_type;location;lat;lon;timestamp;P1;durP1;ratioP1;P2;durP2;ratioP2
18623;SDS011;9441;51.420;7.036;2022-08-19T00:00:44;10.65;;;6.38;;
18623;SDS011;9441;51.420;7.036;2022-08-19T00:01:46;11.45;;;6.63;;
18623;SDS011;9441;51.420;7.036;2022-08-19T00:02:51;9.95;;;6.70;;
18623;SDS011;9441;51.420;7.036;2022-08-19T00:03:52;10.75;;;6.57;;
18623;SDS011;9441;51.420;7.036;2022-08-19T00:04:55;9.40;;;6.85;;
18623;SDS011;9441;51.420;7.036;2022-08-19T00:05:56;11.43;;;7.32;;
18623;SDS011;9441;51.420;7.036;2022-08-19T00:06:58;9.77;;;6.93;;
18623;SDS011;9441;51.420;7.036;2022-08-19T00:08:00;12.13;;;6.60;;
18623;SDS011;9441;51.420;7.036;2022-08-19T00:09:02;8.68;;;6.78;;
18623;SDS011;9441;51.420;7.036;2022-08-19T00:10:05;10.35;;;7.00;;
18623;SDS011;9441;51.420;7.036;2022-08-19T00:11:08;9.02;;;6.15;;
18623;SDS011;9441;51.420;7.036;2022-08-19T00:12:10;9.25;;;6.53;;
18623;SDS011;9441;51.420;7.036;2022-08-19T00:13:12;12.60;;;7.00;;
18623;SDS011;9441;51.420;7.036;2022-08-19T00:14:15;12.07;;;7.20;;
18623;SDS011;9441;51.420;7.036;2022-08-19T00:15:19;14.20;;;6.80;;
18623;SDS011;9441;51.420;7.036;2022-08-19T00:16:21;9.93;;;7.10;;
18623;SDS011;9441;51.420;7.036;2022-08-19T00:17:24;8.38;;;6.68;;
18623;SDS011;9441;51.420;7.036;2022-08-19T00:18:27;13.88;;;7.47;;
18623;SDS011;9441;51.420;7.036;2022-08-19T00:19:29;9.25;;;7.07;;
18623;SDS011;9441;51.420;7.036;2022-08-19T00:20:30;9.55;;;7.00;;
18623;SDS011;9441;51.420;7.036;2022-08-19T00:21:33;13.57;;;6.85;;
18623;SDS011;9441;51.420;7.036;2022-08-19T00:22:36;11.13;;;6.70;;
18623;SDS011;9441;51.420;7.036;2022-08-19T00:23:39;11.82;;;6.63;;
18623;SDS011;9441;51.420;7.036;2022-08-19T00:24:40;9.40;;;7.03;;
18623;SDS011;9441;51.420;7.036;2022-08-19T00:25:43;9.77;;;6.97;;
18623;SDS011;9441;51.420;7.036;2022-08-19T00:26:45;10.27;;;6.97;;
18623;SDS011;9441;51.420;7.036;2022-08-19T00:27:47;9.48;;;6.72;;
18623;SDS011;9441;51.420;7.036;2022-08-19T00:28:48;11.18;;;7.50;;
18623;SDS011;9441;51.420;7.036;2022-08-19T00:29:50;10.15;;;6.95;;
18623;SDS011;9441;51.420;7.036;2022-08-19T00:30:51;8.80;;;6.90;;
18623;SDS011;9441;51.420;7.036;2022-08-19T00:31:53;9.75;;;6.97;;
18623;SDS011;9441;51.420;7.036;2022-08-19T00:32:58;9.77;;;6.53;;
18623;SDS011;9441;51.420;7.036;2022-08-19T00:34:01;8.57;;;6.80;;
18623;SDS011;9441;51.420;7.036;2022-08-19T00:35:03;12.73;;;7.25;;
18623;SDS011;9441;51.420;7.036;2022-08-19T00:36:06;11.32;;;7.30;;
18623;SDS011;9441;51.420;7.036;2022-08-19T00:37:09;10.48;;;7.47;;
18623;SDS011;9441;51.420;7.036;2022-08-19T00:38:10;14.43;;;7.57;;
18623;SDS011;9441;51.420;7.036;2022-08-19T00:39:12;12.98;;;7.00;;
18623;SDS011;9441;51.420;7.036;2022-08-19T00:40:14;11.93;;;7.13;;
18623;SDS011;9441;51.420;7.036;2022-08-19T00:41:19;8.15;;;6.60;;
18623;SDS011;9441;51.420;7.036;2022-08-19T00:42:21;9.18;;;6.78;;
18623;SDS011;9441;51.420;7.036;2022-08-19T00:43:28;9.07;;;6.97;;
18623;SDS011;9441;51.420;7.036;2022-08-19T00:44:29;10.98;;;7.40;;
18623;SDS011;9441;51.420;7.036;2022-08-19T00:45:32;11.20;;;6.75;;
18623;SDS011;9441;51.420;7.036;2022-08-19T00:46:34;11.48;;;6.63;;
18623;SDS011;9441;51.420;7.036;2022-08-19T00:47:38;8.32;;;7.03;;
18623;SDS011;9441;51.420;7.036;2022-08-19T00:48:39;10.63;;;6.88;;
18623;SDS011;9441;51.420;7.036;2022-08-19T00:49:44;11.07;;;6.88;;
18623;SDS011;9441;51.420;7.036;2022-08-19T00:50:51;12.32;;;6.65;;
18623;SDS011;9441;51.420;7.036;2022-08-19T00:51:57;11.90;;;6.78;;
18623;SDS011;9441;51.420;7.036;2022-08-19T00:53:01;11.35;;;7.20;;
18623;SDS011;9441;51.420;7.036;2022-08-19T00:54:04;10.75;;;6.90;;
18623;SDS011;9441;51.420;7.036;2022-08-19T00:55:07;12.50;;;6.97;;
18623;SDS011;9441;51.420;7.036;2022-08-19T00:56:12;11.48;;;6.55;;
18623;SDS011;9441;51.420;7.036;2022-08-19T00:57:15;10.43;;;6.93;;
18623;SDS011;9441;51.420;7.036;2022-08-19T00:58:21;9.63;;;6.82;;
18623;SDS011;9441;51.420;7.036;2022-08-19T00:59:24;10.98;;;6.95;;
18623;SDS011;9441;51.420;7.036;2022-08-19T01:00:27;7.65;;;6.28;;
18623;SDS011;9441;51.420;7.036;2022-08-19T01:01:29;8.75;;;6.70;;
18623;SDS011;9441;51.420;7.036;2022-08-19T01:02:31;10.32;;;6.93;;
18623;SDS011;9441;51.420;7.036;2022-08-19T01:03:33;9.50;;;7.40;;
18623;SDS011;9441;51.420;7.036;2022-08-19T01:04:35;8.98;;;6.97;;
18623;SDS011;9441;51.420;7.036;2022-08-19T01:05:37;15.00;;;6.97;;
18623;SDS011;9441;51.420;7.036;2022-08-19T01:06:42;10.35;;;7.25;;
18623;SDS011;9441;51.420;7.036;2022-08-19T01:07:43;10.27;;;7.30;;
18623;SDS011;9441;51.420;7.036;2022-08-19T01:08:46;8.75;;;7.35;;
18623;SDS011;9441;51.420;7.036;2022-08-19T01:09:47;12.15;;;7.60;;
18623;SDS011;9441;51.420;7.036;2022-08-19T01:10:50;12.88;;;7.80;;
18623;SDS011;9441;51.420;7.036;2022-08-19T01:11:54;15.48;;;7.93;;
18623;SDS011;9441;51.420;7.036;2022-08-19T01:12:58;12.65;;;8.25;;
18623;SDS011;9441;51.420;7.036;2022-08-19T01:14:01;13.98;;;7.65;;
18623;SDS011;9441;51.420;7.036;2022-08-19T01:15:04;11.68;;;7.70;;
18623;SDS011;9441;51.420;7.036;2022-08-19T01:16:08;9.90;;;8.10;;
18623;SDS011;9441;51.420;7.036;2022-08-19T01:17:12;12.02;;;7.95;;
18623;SDS011;9441;51.420;7.036;2022-08-19T01:18:15;11.05;;;7.43;;
18623;SDS011;9441;51.420;7.036;2022-08-19T01:19:20;12.63;;;7.47;;
18623;SDS011;9441;51.420;7.036;2022-08-19T01:20:26;9.07;;;7.65;;
18623;SDS011;9441;51.420;7.036;2022-08-19T01:21:31;10.95;;;7.15;;
18623;SDS011;9441;51.420;7.036;2022-08-19T01:22:36;15.15;;;7.95;;
18623;SDS011;9441;51.420;7.036;2022-08-19T01:23:45;11.40;;;7.53;;
18623;SDS011;9441;51.420;7.036;2022-08-19T01:24:46;11.35;;;7.75;;
18623;SDS011;9441;51.420;7.036;2022-08-19T01:25:50;14.13;;;8.15;;
18623;SDS011;9441;51.420;7.036;2022-08-19T01:26:52;11.18;;;7.85;;
18623;SDS011;9441;51.420;7.036;2022-08-19T01:27:55;9.43;;;7.75;;
18623;SDS011;9441;51.420;7.036;2022-08-19T01:28:57;11.65;;;8.23;;
18623;SDS011;9441;51.420;7.036;2022-08-19T01:30:01;10.82;;;8.25;;
18623;SDS011;9441;51.420;7.036;2022-08-19T01:31:03;14.77;;;8.13;;
18623;SDS011;9441;51.420;7.036;2022-08-19T01:32:06;16.42;;;7.57;;
18623;SDS011;9441;51.420;7.036;2022-08-19T01:33:09;9.95;;;7.15;;
18623;SDS011;9441;51.420;7.036;2022-08-19T01:34:11;11.52;;;8.45;;
18623;SDS011;9441;51.420;7.036;2022-08-19T01:35:12;11.73;;;7.60;;
18623;SDS011;9441;51.420;7.036;2022-08-19T01:36:22;14.43;;;8.70;;
18623;SDS011;9441;51.420;7.036;2022-08-19T01:37:25;12.48;;;8.27;;
18623;SDS011;9441;51.420;7.036;2022-08-19T01:38:29;9.80;;;7.60;;
18623;SDS011;9441;51.420;7.036;2022-08-19T01:39:32;13.40;;;8.57;;
18623;SDS011;9441;51.420;7.036;2022-08-19T01:40:36;13.40;;;8.00;;
18623;SDS011;9441;51.420;7.036;2022-08-19T01:41:40;12.63;;;8.43;;
18623;SDS011;9441;51.420;7.036;2022-08-19T01:42:42;10.45;;;8.27;;
18623;SDS011;9441;51.420;7.036;2022-08-19T01:43:43;9.27;;;8.25;;
18623;SDS011;9441;51.420;7.036;2022-08-19T01:44:46;14.63;;;9.07;;
18623;SDS011;9441;51.420;7.036;2022-08-19T01:45:47;14.32;;;9.07;;
18623;SDS011;9441;51.420;7.036;2022-08-19T01:46:49;16.95;;;9.30;;
18623;SDS011;9441;51.420;7.036;2022-08-19T01:47:51;11.68;;;8.68;;
18623;SDS011;9441;51.420;7.036;2022-08-19T01:48:54;14.40;;;9.48;;
18623;SDS011;9441;51.420;7.036;2022-08-19T01:49:55;15.98;;;8.85;;
18623;SDS011;9441;51.420;7.036;2022-08-19T01:50:59;10.90;;;9.27;;
18623;SDS011;9441;51.420;7.036;2022-08-19T01:52:00;13.02;;;9.07;;
18623;SDS011;9441;51.420;7.036;2022-08-19T01:53:03;11.98;;;9.07;;
18623;SDS011;9441;51.420;7.036;2022-08-19T01:54:07;12.73;;;8.23;;
18623;SDS011;9441;51.420;7.036;2022-08-19T01:55:11;10.38;;;8.27;;
18623;SDS011;9441;51.420;7.036;2022-08-19T01:56:14;11.65;;;8.88;;
18623;SDS011;9441;51.420;7.036;2022-08-19T01:57:17;11.20;;;8.13;;
18623;SDS011;9441;51.420;7.036;2022-08-19T01:58:19;12.70;;;8.93;;
18623;SDS011;9441;51.420;7.036;2022-08-19T01:59:24;11.20;;;8.77;;
18623;SDS011;9441;51.420;7.036;2022-08-19T02:00:26;16.40;;;8.93;;
18623;SDS011;9441;51.420;7.036;2022-08-19T02:01:30;13.07;;;9.45;;
18623;SDS011;9441;51.420;7.036;2022-08-19T02:02:32;13.07;;;8.80;;
18623;SDS011;9441;51.420;7.036;2022-08-19T02:03:34;12.38;;;8.73;;
18623;SDS011;9441;51.420;7.036;2022-08-19T02:04:36;13.40;;;9.13;;
18623;SDS011;9441;51.420;7.036;2022-08-19T02:05:38;15.80;;;9.18;;
18623;SDS011;9441;51.420;7.036;2022-08-19T02:06:41;12.65;;;9.65;;
18623;SDS011;9441;51.420;7.036;2022-08-19T02:07:42;12.43;;;9.05;;
18623;SDS011;9441;51.420;7.036;2022-08-19T02:08:44;17.45;;;8.88;;
18623;SDS011;9441;51.420;7.036;2022-08-19T02:09:47;13.52;;;8.68;;
18623;SDS011;9441;51.420;7.036;2022-08-19T02:10:49;10.30;;;8.43;;
18623;SDS011;9441;51.420;7.036;2022-08-19T02:11:51;13.88;;;8.80;;
18623;SDS011;9441;51.420;7.036;2022-08-19T02:12:53;14.57;;;8.30;;
18623;SDS011;9441;51.420;7.036;2022-08-19T02:13:54;11.38;;;8.32;;
18623;SDS011;9441;51.420;7.036;2022-08-19T02:14:56;11.55;;;8.88;;
18623;SDS011;9441;51.420;7.036;2022-08-19T02:15:58;12.88;;;8.90;;
18623;SDS011;9441;51.420;7.036;2022-08-19T02:17:00;12.95;;;9.15;;
18623;SDS011;9441;51.420;7.036;2022-08-19T02:18:02;13.25;;;8.85;;
18623;SDS011;9441;51.420;7.036;2022-08-19T02:19:04;12.25;;;8.85;;
18623;SDS011;9441;51.420;7.036;2022-08-19T02:20:06;11.25;;;8.25;;
18623;SDS011;9441;51.420;7.036;2022-08-19T02:21:09;12.23;;;8.57;;
18623;SDS011;9441;51.420;7.036;2022-08-19T02:22:11;21.33;;;9.65;;
18623;SDS011;9441;51.420;7.036;2022-08-19T02:23:13;20.45;;;9.30;;
18623;SDS011;9441;51.420;7.036;2022-08-19T02:24:15;11.20;;;8.80;;
18623;SDS011;9441;51.420;7.036;2022-08-19T02:25:19;17.75;;;9.55;;
18623;SDS011;9441;51.420;7.036;2022-08-19T02:26:21;19.45;;;10.13;;
18623;SDS011;9441;51.420;7.036;2022-08-19T02:27:23;12.07;;;9.02;;
18623;SDS011;9441;51.420;7.036;2022-08-19T02:28:26;11.68;;;8.88;;
18623;SDS011;9441;51.420;7.036;2022-08-19T02:29:28;16.60;;;9.70;;
18623;SDS011;9441;51.420;7.036;2022-08-19T02:30:29;14.27;;;9.25;;
18623;SDS011;9441;51.420;7.036;2022-08-19T02:31:32;12.05;;;9.70;;
18623;SDS011;9441;51.420;7.036;2022-08-19T02:32:33;19.08;;;8.77;;
18623;SDS011;9441;51.420;7.036;2022-08-19T02:33:35;11.95;;;9.48;;
18623;SDS011;9441;51.420;7.036;2022-08-19T02:34:36;14.48;;;8.93;;
18623;SDS011;9441;51.420;7.036;2022-08-19T02:35:40;11.52;;;8.95;;
18623;SDS011;9441;51.420;7.036;2022-08-19T02:36:42;18.40;;;8.82;;
18623;SDS011;9441;51.420;7.036;2022-08-19T02:37:44;15.63;;;9.43;;
18623;SDS011;9441;51.420;7.036;2022-08-19T02:39:00;15.48;;;9.40;;
18623;SDS011;9441;51.420;7.036;2022-08-19T02:40:02;14.98;;;9.57;;
18623;SDS011;9441;51.420;7.036;2022-08-19T02:41:06;18.60;;;9.00;;
18623;SDS011;9441;51.420;7.036;2022-08-19T02:42:13;15.48;;;9.57;;
18623;SDS011;9441;51.420;7.036;2022-08-19T02:43:14;22.20;;;9.98;;
18623;SDS011;9441;51.420;7.036;2022-08-19T02:44:16;12.25;;;9.35;;
18623;SDS011;9441;51.420;7.036;2022-08-19T02:45:19;12.73;;;8.73;;
18623;SDS011;9441;51.420;7.036;2022-08-19T02:46:22;14.15;;;9.07;;
18623;SDS011;9441;51.420;7.036;2022-08-19T02:47:25;11.25;;;8.57;;
18623;SDS011;9441;51.420;7.036;2022-08-19T02:48:26;14.20;;;9.68;;
18623;SDS011;9441;51.420;7.036;2022-08-19T02:49:30;12.02;;;9.52;;
18623;SDS011;9441;51.420;7.036;2022-08-19T02:50:32;14.88;;;9.50;;
18623;SDS011;9441;51.420;7.036;2022-08-19T02:51:35;14.30;;;9.52;;
18623;SDS011;9441;51.420;7.036;2022-08-19T02:52:38;13.43;;;10.05;;
18623;SDS011;9441;51.420;7.036;2022-08-19T02:53:41;15.27;;;10.85;;
18623;SDS011;9441;51.420;7.036;2022-08-19T02:54:42;16.05;;;9.98;;
18623;SDS011;9441;51.420;7.036;2022-08-19T02:55:45;13.32;;;10.10;;
18623;SDS011;9441;51.420;7.036;2022-08-19T02:56:48;14.52;;;9.63;;
18623;SDS011;9441;51.420;7.036;2022-08-19T02:57:50;16.48;;;9.68;;
18623;SDS011;9441;51.420;7.036;2022-08-19T02:58:51;11.77;;;9.82;;
18623;SDS011;9441;51.420;7.036;2022-08-19T02:59:54;16.98;;;9.90;;
18623;SDS011;9441;51.420;7.036;2022-08-19T03:00:55;17.65;;;10.55;;
18623;SDS011;9441;51.420;7.036;2022-08-19T03:01:57;13.52;;;10.57;;
18623;SDS011;9441;51.420;7.036;2022-08-19T03:02:58;17.95;;;11.07;;
18623;SDS011;9441;51.420;7.036;2022-08-19T03:04:02;16.10;;;10.85;;
18623;SDS011;9441;51.420;7.036;2022-08-19T03:05:06;18.10;;;10.90;;
18623;SDS011;9441;51.420;7.036;2022-08-19T03:06:10;16.77;;;11.65;;
18623;SDS011;9441;51.420;7.036;2022-08-19T03:07:14;14.70;;;11.82;;
18623;SDS011;9441;51.420;7.036;2022-08-19T03:08:16;18.98;;;12.38;;
18623;SDS011;9441;51.420;7.036;2022-08-19T03:09:18;17.98;;;12.05;;
18623;SDS011;9441;51.420;7.036;2022-08-19T03:10:20;17.52;;;12.57;;
18623;SDS011;9441;51.420;7.036;2022-08-19T03:11:23;16.85;;;10.75;;
18623;SDS011;9441;51.420;7.036;2022-08-19T03:12:28;18.70;;;11.60;;
18623;SDS011;9441;51.420;7.036;2022-08-19T03:13:30;19.02;;;12.40;;
18623;SDS011;9441;51.420;7.036;2022-08-19T03:14:32;19.25;;;12.15;;
18623;SDS011;9441;51.420;7.036;2022-08-19T03:15:34;17.50;;;12.70;;
18623;SDS011;9441;51.420;7.036;2022-08-19T03:16:40;17.20;;;13.18;;
18623;SDS011;9441;51.420;7.036;2022-08-19T03:17:45;19.60;;;12.43;;
18623;SDS011;9441;51.420;7.036;2022-08-19T03:18:46;18.13;;;13.63;;
18623;SDS011;9441;51.420;7.036;2022-08-19T03:19:48;18.67;;;13.23;;
18623;SDS011;9441;51.420;7.036;2022-08-19T03:20:50;20.55;;;13.48;;
18623;SDS011;9441;51.420;7.036;2022-08-19T03:21:54;19.10;;;14.23;;
18623;SDS011;9441;51.420;7.036;2022-08-19T03:22:55;24.38;;;15.45;;
18623;SDS011;9441;51.420;7.036;2022-08-19T03:23:58;23.45;;;14.20;;
18623;SDS011;9441;51.420;7.036;2022-08-19T03:25:01;27.13;;;15.70;;
18623;SDS011;9441;51.420;7.036;2022-08-19T03:26:04;20.40;;;14.82;;
18623;SDS011;9441;51.420;7.036;2022-08-19T03:27:06;22.15;;;14.60;;
18623;SDS011;9441;51.420;7.036;2022-08-19T03:28:10;22.85;;;14.77;;
18623;SDS011;9441;51.420;7.036;2022-08-19T03:29:13;24.05;;;15.80;;
18623;SDS011;9441;51.420;7.036;2022-08-19T03:30:16;23.75;;;15.57;;
18623;SDS011;9441;51.420;7.036;2022-08-19T03:31:18;24.02;;;15.05;;
18623;SDS011;9441;51.420;7.036;2022-08-19T03:32:22;21.73;;;15.75;;
18623;SDS011;9441;51.420;7.036;2022-08-19T03:33:24;20.33;;;15.25;;
18623;SDS011;9441;51.420;7.036;2022-08-19T03:34:27;23.58;;;16.10;;
18623;SDS011;9441;51.420;7.036;2022-08-19T03:35:30;27.00;;;16.70;;
18623;SDS011;9441;51.420;7.036;2022-08-19T03:36:32;25.17;;;17.20;;
18623;SDS011;9441;51.420;7.036;2022-08-19T03:37:34;23.58;;;17.02;;
18623;SDS011;9441;51.420;7.036;2022-08-19T03:38:35;26.40;;;17.70;;
18623;SDS011;9441;51.420;7.036;2022-08-19T03:39:39;27.35;;;17.15;;
18623;SDS011;9441;51.420;7.036;2022-08-19T03:40:41;24.48;;;16.35;;
18623;SDS011;9441;51.420;7.036;2022-08-19T03:41:44;27.45;;;17.25;;
18623;SDS011;9441;51.420;7.036;2022-08-19T03:42:47;28.55;;;17.27;;
18623;SDS011;9441;51.420;7.036;2022-08-19T03:43:51;28.83;;;17.50;;
18623;SDS011;9441;51.420;7.036;2022-08-19T03:44:53;26.00;;;16.70;;
18623;SDS011;9441;51.420;7.036;2022-08-19T03:45:59;28.13;;;18.20;;
18623;SDS011;9441;51.420;7.036;2022-08-19T03:47:03;26.42;;;17.02;;
18623;SDS011;9441;51.420;7.036;2022-08-19T03:48:06;26.25;;;17.70;;
18623;SDS011;9441;51.420;7.036;2022-08-19T03:49:08;27.20;;;16.10;;
18623;SDS011;9441;51.420;7.036;2022-08-19T03:50:10;22.88;;;16.20;;
18623;SDS011;9441;51.420;7.036;2022-08-19T03:51:15;25.40;;;17.02;;
18623;SDS011;9441;51.420;7.036;2022-08-19T03:52:19;27.95;;;17.33;;
18623;SDS011;9441;51.420;7.036;2022-08-19T03:53:20;29.92;;;17.88;;
18623;SDS011;9441;51.420;7.036;2022-08-19T03:54:23;25.85;;;17.25;;
18623;SDS011;9441;51.420;7.036;2022-08-19T03:55:26;24.80;;;17.38;;
18623;SDS011;9441;51.420;7.036;2022-08-19T03:56:27;26.02;;;17.70;;
18623;SDS011;9441;51.420;7.036;2022-08-19T03:57:29;28.05;;;18.00;;
18623;SDS011;9441;51.420;7.036;2022-08-19T03:58:30;26.27;;;17.27;;
18623;SDS011;9441;51.420;7.036;2022-08-19T03:59:35;27.02;;;17.63;;
18623;SDS011;9441;51.420;7.036;2022-08-19T04:00:37;30.73;;;18.00;;
18623;SDS011;9441;51.420;7.036;2022-08-19T04:01:42;29.70;;;18.70;;
18623;SDS011;9441;51.420;7.036;2022-08-19T04:02:44;30.38;;;18.27;;
18623;SDS011;9441;51.420;7.036;2022-08-19T04:03:46;37.70;;;20.27;;
18623;SDS011;9441;51.420;7.036;2022-08-19T04:04:48;30.27;;;19.05;;
18623;SDS011;9441;51.420;7.036;2022-08-19T04:05:50;30.20;;;19.35;;
18623;SDS011;9441;51.420;7.036;2022-08-19T04:06:51;27.83;;;19.08;;
18623;SDS011;9441;51.420;7.036;2022-08-19T04:07:53;28.05;;;18.73;;
18623;SDS011;9441;51.420;7.036;2022-08-19T04:08:57;29.15;;;19.00;;
18623;SDS011;9441;51.420;7.036;2022-08-19T04:10:01;27.52;;;19.67;;
18623;SDS011;9441;51.420;7.036;2022-08-19T04:11:06;34.08;;;18.75;;
18623;SDS011;9441;51.420;7.036;2022-08-19T04:12:09;24.98;;;17.70;;
18623;SDS011;9441;51.420;7.036;2022-08-19T04:13:11;26.95;;;17.52;;
18623;SDS011;9441;51.420;7.036;2022-08-19T04:14:13;26.20;;;18.17;;
18623;SDS011;9441;51.420;7.036;2022-08-19T04:15:18;28.15;;;17.75;;
18623;SDS011;9441;51.420;7.036;2022-08-19T04:16:20;27.85;;;17.95;;
18623;SDS011;9441;51.420;7.036;2022-08-19T04:17:23;25.75;;;17.80;;
18623;SDS011;9441;51.420;7.036;2022-08-19T04:18:24;28.75;;;17.80;;
18623;SDS011;9441;51.420;7.036;2022-08-19T04:19:26;24.15;;;17.63;;
18623;SDS011;9441;51.420;7.036;2022-08-19T04:20:29;29.60;;;16.88;;
18623;SDS011;9441;51.420;7.036;2022-08-19T04:21:31;23.38;;;17.40;;
18623;SDS011;9441;51.420;7.036;2022-08-19T04:22:32;27.75;;;18.05;;
18623;SDS011;9441;51.420;7.036;2022-08-19T04:23:34;25.65;;;17.90;;
18623;SDS011;9441;51.420;7.036;2022-08-19T04:24:36;24.80;;;17.67;;
18623;SDS011;9441;51.420;7.036;2022-08-19T04:25:39;23.63;;;17.25;;
18623;SDS011;9441;51.420;7.036;2022-08-19T04:26:42;28.08;;;17.10;;
18623;SDS011;9441;51.420;7.036;2022-08-19T04:27:44;25.95;;;17.02;;
18623;SDS011;9441;51.420;7.036;2022-08-19T04:28:46;25.15;;;17.55;;
18623;SDS011;9441;51.420;7.036;2022-08-19T04:29:49;28.25;;;17.50;;
18623;SDS011;9441;51.420;7.036;2022-08-19T04:30:54;25.20;;;17.00;;
18623;SDS011;9441;51.420;7.036;2022-08-19T04:31:56;22.88;;;17.00;;
18623;SDS011;9441;51.420;7.036;2022-08-19T04:32:59;23.13;;;16.55;;
18623;SDS011;9441;51.420;7.036;2022-08-19T04:34:01;29.10;;;16.30;;
18623;SDS011;9441;51.420;7.036;2022-08-19T04:35:05;21.33;;;16.10;;
18623;SDS011;9441;51.420;7.036;2022-08-19T04:36:07;21.83;;;16.02;;
18623;SDS011;9441;51.420;7.036;2022-08-19T04:37:16;22.77;;;16.00;;
18623;SDS011;9441;51.420;7.036;2022-08-19T04:38:18;25.63;;;15.88;;
18623;SDS011;9441;51.420;7.036;2022-08-19T04:39:23;24.02;;;16.33;;
18623;SDS011;9441;51.420;7.036;2022-08-19T04:40:47;24.00;;;14.70;;
18623;SDS011;9441;51.420;7.036;2022-08-19T04:42:08;24.55;;;14.93;;
18623;SDS011;9441;51.420;7.036;2022-08-19T04:43:28;19.27;;;14.55;;
18623;SDS011;9441;51.420;7.036;2022-08-19T04:44:31;21.40;;;15.27;;
18623;SDS011;9441;51.420;7.036;2022-08-19T04:45:32;20.52;;;14.40;;
18623;SDS011;9441;51.420;7.036;2022-08-19T04:46:36;25.75;;;15.98;;
18623;SDS011;9441;51.420;7.036;2022-08-19T04:47:38;24.35;;;14.63;;
18623;SDS011;9441;51.420;7.036;2022-08-19T04:48:44;23.55;;;14.85;;
18623;SDS011;9441;51.420;7.036;2022-08-19T04:49:45;23.02;;;16.02;;
18623;SDS011;9441;51.420;7.036;2022-08-19T04:50:48;21.30;;;14.48;;
18623;SDS011;9441;51.420;7.036;2022-08-19T04:51:50;22.75;;;14.70;;
18623;SDS011;9441;51.420;7.036;2022-08-19T04:52:54;22.13;;;14.82;;
18623;SDS011;9441;51.420;7.036;2022-08-19T04:53:56;21.88;;;14.18;;
18623;SDS011;9441;51.420;7.036;2022-08-19T04:54:59;23.90;;;14.82;;
18623;SDS011;9441;51.420;7.036;2022-08-19T04:56:03;20.85;;;14.93;;
18623;SDS011;9441;51.420;7.036;2022-08-19T04:57:08;20.25;;;15.18;;
18623;SDS011;9441;51.420;7.036;2022-08-19T04:58:10;26.88;;;15.20;;
18623;SDS011;9441;51.420;7.036;2022-08-19T04:59:12;20.42;;;15.07;;
18623;SDS011;9441;51.420;7.036;2022-08-19T05:00:14;22.40;;;15.38;;
18623;SDS011;9441;51.420;7.036;2022-08-19T05:01:17;20.10;;;14.30;;
18623;SDS011;9441;51.420;7.036;2022-08-19T05:02:20;21.83;;;14.45;;
18623;SDS011;9441;51.420;7.036;2022-08-19T05:03:24;21.10;;;14.25;;
18623;SDS011;9441;51.420;7.036;2022-08-19T05:04:26;22.80;;;15.00;;
18623;SDS011;9441;51.420;7.036;2022-08-19T05:05:28;18.58;;;14.00;;
18623;SDS011;9441;51.420;7.036;2022-08-19T05:06:32;21.08;;;15.27;;
18623;SDS011;9441;51.420;7.036;2022-08-19T05:07:35;18.95;;;15.30;;
18623;SDS011;9441;51.420;7.036;2022-08-19T05:08:37;18.35;;;14.48;;
18623;SDS011;9441;51.420;7.036;2022-08-19T05:09:42;19.73;;;14.45;;
18623;SDS011;9441;51.420;7.036;2022-08-19T05:10:44;20.75;;;14.30;;
18623;SDS011;9441;51.420;7.036;2022-08-19T05:11:45;20.80;;;14.05;;
18623;SDS011;9441;51.420;7.036;2022-08-19T05:12:48;24.25;;;14.50;;
18623;SDS011;9441;51.420;7.036;2022-08-19T05:13:49;20.95;;;15.35;;
18623;SDS011;9441;51.420;7.036;2022-08-19T05:14:52;21.08;;;15.23;;
18623;SDS011;9441;51.420;7.036;2022-08-19T05:15:53;20.67;;;14.98;;
18623;SDS011;9441;51.420;7.036;2022-08-19T05:16:56;23.92;;;15.57;;
18623;SDS011;9441;51.420;7.036;2022-08-19T05:17:59;20.17;;;15.52;;
18623;SDS011;9441;51.420;7.036;2022-08-19T05:19:20;17.38;;;14.10;;
18623;SDS011;9441;51.420;7.036;2022-08-19T05:20:40;22.38;;;15.20;;
18623;SDS011;9441;51.420;7.036;2022-08-19T05:22:00;24.65;;;15.93;;
18623;SDS011;9441;51.420;7.036;2022-08-19T05:23:20;24.95;;;16.48;;
18623;SDS011;9441;51.420;7.036;2022-08-19T05:24:22;22.45;;;16.50;;
18623;SDS011;9441;51.420;7.036;2022-08-19T05:25:24;20.65;;;16.05;;
18623;SDS011;9441;51.420;7.036;2022-08-19T05:26:26;24.10;;;15.52;;
18623;SDS011;9441;51.420;7.036;2022-08-19T05:27:27;22.75;;;15.85;;
18623;SDS011;9441;51.420;7.036;2022-08-19T05:28:29;24.90;;;16.08;;
18623;SDS011;9441;51.420;7.036;2022-08-19T05:29:31;25.80;;;15.23;;
18623;SDS011;9441;51.420;7.036;2022-08-19T05:30:35;28.30;;;15.35;;
18623;SDS011;9441;51.420;7.036;2022-08-19T05:31:36;23.95;;;15.77;;
18623;SDS011;9441;51.420;7.036;2022-08-19T05:32:39;22.95;;;16.50;;
18623;SDS011;9441;51.420;7.036;2022-08-19T05:33:43;25.00;;;15.40;;
18623;SDS011;9441;51.420;7.036;2022-08-19T05:34:44;25.00;;;16.20;;
18623;SDS011;9441;51.420;7.036;2022-08-19T05:35:46;23.02;;;15.70;;
18623;SDS011;9441;51.420;7.036;2022-08-19T05:36:49;23.98;;;16.00;;
18623;SDS011;9441;51.420;7.036;2022-08-19T05:37:57;22.35;;;15.07;;
18623;SDS011;9441;51.420;7.036;2022-08-19T05:38:58;23.40;;;16.70;;
18623;SDS011;9441;51.420;7.036;2022-08-19T05:40:00;24.38;;;15.70;;
18623;SDS011;9441;51.420;7.036;2022-08-19T05:41:05;21.88;;;16.30;;
18623;SDS011;9441;51.420;7.036;2022-08-19T05:42:09;17.55;;;14.48;;
18623;SDS011;9441;51.420;7.036;2022-08-19T05:43:11;25.95;;;17.45;;
18623;SDS011;9441;51.420;7.036;2022-08-19T05:44:16;24.02;;;16.67;;
18623;SDS011;9441;51.420;7.036;2022-08-19T05:45:17;29.77;;;18.48;;
18623;SDS011;9441;51.420;7.036;2022-08-19T05:46:20;27.88;;;19.58;;
18623;SDS011;9441;51.420;7.036;2022-08-19T05:47:22;34.40;;;19.95;;
18623;SDS011;9441;51.420;7.036;2022-08-19T05:48:25;29.15;;;19.05;;
18623;SDS011;9441;51.420;7.036;2022-08-19T05:49:28;25.48;;;17.25;;
18623;SDS011;9441;51.420;7.036;2022-08-19T05:50:31;31.40;;;20.65;;
18623;SDS011;9441;51.420;7.036;2022-08-19T05:51:32;22.10;;;15.55;;
18623;SDS011;9441;51.420;7.036;2022-08-19T05:52:36;27.35;;;18.38;;
18623;SDS011;9441;51.420;7.036;2022-08-19T05:53:39;30.60;;;19.88;;
18623;SDS011;9441;51.420;7.036;2022-08-19T05:54:40;33.55;;;21.77;;
18623;SDS011;9441;51.420;7.036;2022-08-19T05:55:42;31.92;;;20.48;;
18623;SDS011;9441;51.420;7.036;2022-08-19T05:56:44;23.73;;;16.85;;
18623;SDS011;9441;51.420;7.036;2022-08-19T05:57:47;29.55;;;18.10;;
18623;SDS011;9441;51.420;7.036;2022-08-19T05:58:49;31.90;;;22.60;;
18623;SDS011;9441;51.420;7.036;2022-08-19T05:59:51;33.35;;;21.60;;
18623;SDS011;9441;51.420;7.036;2022-08-19T06:00:52;31.17;;;19.25;;
18623;SDS011;9441;51.420;7.036;2022-08-19T06:01:55;38.20;;;25.35;;
18623;SDS011;9441;51.420;7.036;2022-08-19T06:02:57;32.88;;;22.35;;
18623;SDS011;9441;51.420;7.036;2022-08-19T06:03:59;36.63;;;24.45;;
18623;SDS011;9441;51.420;7.036;2022-08-19T06:05:02;40.20;;;24.13;;
18623;SDS011;9441;51.420;7.036;2022-08-19T06:06:07;39.75;;;23.38;;
18623;SDS011;9441;51.420;7.036;2022-08-19T06:07:10;40.90;;;24.58;;
18623;SDS011;9441;51.420;7.036;2022-08-19T06:08:12;32.28;;;19.85;;
18623;SDS011;9441;51.420;7.036;2022-08-19T06:09:14;40.50;;;26.00;;
18623;SDS011;9441;51.420;7.036;2022-08-19T06:10:16;34.55;;;22.92;;
18623;SDS011;9441;51.420;7.036;2022-08-19T06:11:18;39.30;;;25.88;;
18623;SDS011;9441;51.420;7.036;2022-08-19T06:12:22;36.38;;;24.67;;
18623;SDS011;9441;51.420;7.036;2022-08-19T06:13:30;38.38;;;23.83;;
18623;SDS011;9441;51.420;7.036;2022-08-19T06:14:33;38.20;;;24.27;;
18623;SDS011;9441;51.420;7.036;2022-08-19T06:15:36;38.15;;;25.38;;
18623;SDS011;9441;51.420;7.036;2022-08-19T06:16:38;38.08;;;24.25;;
18623;SDS011;9441;51.420;7.036;2022-08-19T06:17:41;44.42;;;27.85;;